createdAt,value
2019-01-19T00:01:13.702Z,27.75
2019-01-19T00:04:44.453Z,25.25
2019-01-19T00:08:09.325Z,27.37
2019-01-19T00:11:34.403Z,24.00
2019-01-19T00:14:39.855Z,29.32
2019-01-19T00:18:08.323Z,26.85
2019-01-19T00:21:45.784Z,20.48
2019-01-19T00:25:29.040Z,25.50
2019-01-19T00:28:19.163Z,29.98
2019-01-19T00:31:06.930Z,21.77
2019-01-19T00:34:35.899Z,24.72
2019-01-19T00:37:54.334Z,23.00
2019-01-19T00:41:17.743Z,28.25
2019-01-19T00:44:34.308Z,27.82
2019-01-19T00:48:06.805Z,25.90
2019-01-19T00:51:42.786Z,27.37
2019-01-19T00:54:49.358Z,23.45
2019-01-19T00:58:44.272Z,31.37
2019-01-19T01:02:19.419Z,25.62
2019-01-19T01:05:14.750Z,26.50
2019-01-19T01:08:51.879Z,27.17
2019-01-19T01:11:54.677Z,28.62
2019-01-19T01:15:07.980Z,23.32
2019-01-19T01:17:59.931Z,24.00
2019-01-19T01:20:58.181Z,24.47
2019-01-19T01:24:19.532Z,24.45
2019-01-19T01:27:42.479Z,26.57
2019-01-19T01:30:52.690Z,24.70
2019-01-19T01:34:28.087Z,22.58
2019-01-19T01:37:32.126Z,25.65
2019-01-19T01:40:28.132Z,32.23
2019-01-19T01:43:22.694Z,28.42
2019-01-19T01:46:33.958Z,27.05
2019-01-19T01:49:58.040Z,27.95
2019-01-19T01:53:49.834Z,24.65
2019-01-19T01:56:19.869Z,22.15
2019-01-19T02:00:02.142Z,22.22
2019-01-19T02:03:30.624Z,23.52
2019-01-19T02:06:52.869Z,24.90
2019-01-19T02:10:23.615Z,33.05
2019-01-19T02:13:46.180Z,24.55
2019-01-19T02:17:15.917Z,22.45
2019-01-19T02:20:44.433Z,26.15
2019-01-19T02:24:18.483Z,30.10
2019-01-19T02:27:53.224Z,34.33
2019-01-19T02:31:17.623Z,24.90
2019-01-19T02:34:26.945Z,19.50
2019-01-19T02:38:07.217Z,24.15
2019-01-19T02:41:33.891Z,27.65
2019-01-19T02:44:47.704Z,25.02
2019-01-19T02:48:22.046Z,28.02
2019-01-19T02:51:03.614Z,26.90
2019-01-19T02:54:43.264Z,27.67
2019-01-19T02:58:18.757Z,23.47
2019-01-19T03:01:40.034Z,24.87
2019-01-19T03:05:17.441Z,26.33
2019-01-19T03:08:47.847Z,29.85
2019-01-19T03:12:38.392Z,21.85
2019-01-19T03:15:49.758Z,25.85
2019-01-19T03:19:29.011Z,28.30
2019-01-19T03:23:24.011Z,20.48
2019-01-19T03:26:53.635Z,22.10
2019-01-19T03:29:43.360Z,28.75
2019-01-19T03:33:22.080Z,25.85
2019-01-19T03:36:50.984Z,30.00
2019-01-19T03:40:04.496Z,26.55
2019-01-19T03:43:08.144Z,22.73
2019-01-19T03:46:35.235Z,23.42
2019-01-19T03:50:16.439Z,24.05
2019-01-19T03:53:39.838Z,29.15
2019-01-19T03:56:57.181Z,28.30
2019-01-19T04:01:01.824Z,29.02
2019-01-19T04:04:18.753Z,22.80
2019-01-19T04:07:30.810Z,27.73
2019-01-19T04:10:40.131Z,20.97
2019-01-19T04:13:49.752Z,22.27
2019-01-19T04:17:01.603Z,26.80
2019-01-19T04:20:15.594Z,23.75
2019-01-19T04:22:52.766Z,23.10
2019-01-19T04:26:01.700Z,29.98
2019-01-19T04:28:32.002Z,26.12
2019-01-19T04:31:01.936Z,22.13
2019-01-19T04:33:31.933Z,24.32
2019-01-19T04:36:01.975Z,26.97
2019-01-19T04:38:33.702Z,20.52
2019-01-19T04:41:03.768Z,24.02
2019-01-19T04:43:34.555Z,23.83
2019-01-19T04:46:04.782Z,28.07
2019-01-19T04:48:35.064Z,25.10
2019-01-19T04:51:04.941Z,26.75
2019-01-19T04:53:34.863Z,28.47
2019-01-19T04:56:04.876Z,17.70
2019-01-19T04:58:35.000Z,21.37
2019-01-19T05:01:05.076Z,22.13
2019-01-19T05:03:34.947Z,31.45
2019-01-19T05:06:12.155Z,23.30
2019-01-19T05:08:36.689Z,22.27
2019-01-19T05:11:06.584Z,24.32
2019-01-19T05:13:39.010Z,22.90
2019-01-19T05:16:10.375Z,21.37
2019-01-19T05:18:40.541Z,22.13
2019-01-19T05:21:16.942Z,21.02
2019-01-19T05:23:47.133Z,25.02
2019-01-19T05:26:17.023Z,20.55
2019-01-19T05:28:57.184Z,27.58
2019-01-19T05:31:28.362Z,31.00
2019-01-19T05:33:59.887Z,22.60
2019-01-19T05:36:29.804Z,27.98
2019-01-19T05:38:59.851Z,26.52
2019-01-19T05:41:29.732Z,24.63
2019-01-19T05:43:59.594Z,22.70
2019-01-19T05:46:29.410Z,24.90
2019-01-19T05:48:59.284Z,27.93
2019-01-19T05:51:29.213Z,24.77
2019-01-19T05:53:59.283Z,23.35
2019-01-19T05:56:29.180Z,22.35
2019-01-19T05:58:59.056Z,19.20
2019-01-19T06:01:29.271Z,25.15
2019-01-19T06:03:59.365Z,24.27
2019-01-19T06:06:29.514Z,34.95
2019-01-19T06:08:59.429Z,23.15
2019-01-19T06:11:32.203Z,27.80
2019-01-19T06:14:03.044Z,25.45
2019-01-19T06:16:32.971Z,24.35
2019-01-19T06:19:03.275Z,22.62
2019-01-19T06:21:40.121Z,25.75
2019-01-19T06:24:09.915Z,25.20
2019-01-19T06:26:41.166Z,22.50
2019-01-19T06:29:11.256Z,24.07
2019-01-19T06:31:41.495Z,24.55
2019-01-19T06:34:14.564Z,28.40
2019-01-19T06:36:44.603Z,24.10
2019-01-19T06:39:17.298Z,27.60
2019-01-19T06:41:47.369Z,25.08
2019-01-19T06:44:17.437Z,27.13
2019-01-19T06:46:47.459Z,27.85
2019-01-19T06:49:17.451Z,20.15
2019-01-19T06:51:47.540Z,25.25
2019-01-19T06:54:17.890Z,17.20
2019-01-19T06:56:47.892Z,24.82
2019-01-19T06:59:17.801Z,27.22
2019-01-19T07:01:47.921Z,22.02
2019-01-19T07:04:17.836Z,22.20
2019-01-19T07:06:47.885Z,26.55
2019-01-19T07:09:17.841Z,23.05
2019-01-19T07:11:47.865Z,25.40
2019-01-19T07:14:17.906Z,20.90
2019-01-19T07:16:48.085Z,25.20
2019-01-19T07:19:18.073Z,22.15
2019-01-19T07:21:48.087Z,24.80
2019-01-19T07:24:18.183Z,23.55
2019-01-19T07:26:48.141Z,21.90
2019-01-19T07:29:18.274Z,26.95
2019-01-19T07:31:48.247Z,29.37
2019-01-19T07:34:18.365Z,26.30
2019-01-19T07:36:48.446Z,22.58
2019-01-19T07:39:18.463Z,20.08
2019-01-19T07:41:48.444Z,21.35
2019-01-19T07:44:18.561Z,29.72
2019-01-19T07:46:55.818Z,31.27
2019-01-19T07:49:20.843Z,25.15
2019-01-19T07:51:50.780Z,18.67
2019-01-19T07:54:21.061Z,27.55
2019-01-19T07:56:52.174Z,22.95
2019-01-19T07:59:22.506Z,24.92
2019-01-19T08:01:52.502Z,29.63
2019-01-19T08:04:22.624Z,16.75
2019-01-19T08:06:52.579Z,25.20
2019-01-19T08:09:22.802Z,23.32
2019-01-19T08:11:52.755Z,24.30
2019-01-19T08:14:22.870Z,24.45
2019-01-19T08:16:52.892Z,25.90
2019-01-19T08:19:22.881Z,30.60
2019-01-19T08:21:52.838Z,30.25
2019-01-19T08:24:22.755Z,25.65
2019-01-19T08:26:52.747Z,21.33
2019-01-19T08:29:23.026Z,25.15
2019-01-19T08:31:53.022Z,28.25
2019-01-19T08:34:23.176Z,22.13
2019-01-19T08:36:53.199Z,31.85
2019-01-19T08:39:23.172Z,26.05
2019-01-19T08:41:53.154Z,29.12
2019-01-19T08:44:23.001Z,24.07
2019-01-19T08:46:56.946Z,27.62
2019-01-19T08:49:26.920Z,25.97
2019-01-19T08:51:56.852Z,35.30
2019-01-19T08:54:27.167Z,34.58
2019-01-19T08:56:58.222Z,26.40
2019-01-19T08:59:28.514Z,33.63
2019-01-19T09:02:00.818Z,25.32
2019-01-19T09:04:32.282Z,32.25
2019-01-19T09:07:02.422Z,27.10
2019-01-19T09:09:32.601Z,24.07
2019-01-19T09:12:02.876Z,25.23
2019-01-19T09:14:33.189Z,32.10
2019-01-19T09:17:05.837Z,30.32
2019-01-19T09:19:36.057Z,34.90
2019-01-19T09:22:06.032Z,22.87
2019-01-19T09:24:35.996Z,27.42
2019-01-19T09:27:06.355Z,20.72
2019-01-19T09:29:36.579Z,27.37
2019-01-19T09:32:06.913Z,35.60
2019-01-19T09:34:37.652Z,25.30
2019-01-19T09:37:08.149Z,25.57
2019-01-19T09:39:39.066Z,27.17
2019-01-19T09:42:49.254Z,26.68
2019-01-19T09:45:32.580Z,30.95
2019-01-19T09:48:09.510Z,29.45
2019-01-19T09:50:39.647Z,39.03
2019-01-19T09:53:09.728Z,29.45
2019-01-19T09:55:39.840Z,33.05
2019-01-19T09:58:54.268Z,27.58
2019-01-19T10:01:31.159Z,26.62
2019-01-19T10:04:03.063Z,28.95
2019-01-19T10:06:33.270Z,30.75
2019-01-19T10:09:06.887Z,27.02
2019-01-19T10:11:37.341Z,25.30
2019-01-19T10:14:07.318Z,30.75
2019-01-19T10:16:37.240Z,26.90
2019-01-19T10:19:07.282Z,22.90
2019-01-19T10:21:37.799Z,24.72
2019-01-19T10:24:18.854Z,22.98
2019-01-19T10:26:49.370Z,26.07
2019-01-19T10:29:22.847Z,28.40
2019-01-19T10:31:53.277Z,26.93
2019-01-19T10:34:26.397Z,24.95
2019-01-19T10:36:56.854Z,27.75
2019-01-19T10:39:27.432Z,25.75
2019-01-19T10:41:57.957Z,30.43
2019-01-19T10:44:31.387Z,26.27
2019-01-19T10:47:04.414Z,27.27
2019-01-19T10:49:34.582Z,28.80
2019-01-19T10:52:04.934Z,24.57
2019-01-19T10:54:39.239Z,26.80
2019-01-19T10:57:11.525Z,26.35
2019-01-19T10:59:42.150Z,29.87
2019-01-19T11:02:16.626Z,27.25
2019-01-19T11:04:46.919Z,28.65
2019-01-19T11:07:18.626Z,27.65
2019-01-19T11:09:49.091Z,31.73
2019-01-19T11:12:19.577Z,24.45
2019-01-19T11:14:50.094Z,21.90
2019-01-19T11:17:20.414Z,24.23
2019-01-19T11:19:50.727Z,29.10
2019-01-19T11:22:21.295Z,21.17
2019-01-19T11:24:59.233Z,38.67
2019-01-19T11:27:29.349Z,28.87
2019-01-19T11:29:59.354Z,31.68
2019-01-19T11:32:32.573Z,26.70
2019-01-19T11:35:08.798Z,32.83
2019-01-19T11:37:38.966Z,29.18
2019-01-19T11:40:30.011Z,28.62
2019-01-19T11:43:00.009Z,27.90
2019-01-19T11:45:30.004Z,29.80
2019-01-19T11:48:00.407Z,34.63
2019-01-19T11:50:30.444Z,23.07
2019-01-19T11:53:00.916Z,43.28
2019-01-19T11:55:30.961Z,27.70
2019-01-19T11:58:03.698Z,31.77
2019-01-19T12:00:36.909Z,27.62
2019-01-19T12:03:07.051Z,36.58
2019-01-19T12:05:38.617Z,32.53
2019-01-19T12:08:10.030Z,22.73
2019-01-19T12:10:40.058Z,32.98
2019-01-19T12:13:12.751Z,25.80
2019-01-19T12:15:43.154Z,29.77
2019-01-19T12:18:13.559Z,26.30
2019-01-19T12:20:49.827Z,24.60
2019-01-19T12:23:19.935Z,30.88
2019-01-19T12:25:49.964Z,29.70
2019-01-19T12:28:20.104Z,29.98
2019-01-19T12:30:51.463Z,30.43
2019-01-19T12:33:21.849Z,27.90
2019-01-19T12:35:52.151Z,28.42
2019-01-19T12:38:26.916Z,30.72
2019-01-19T12:40:57.611Z,37.17
2019-01-19T12:43:27.915Z,32.88
2019-01-19T12:50:02.346Z,37.42
2019-01-19T12:52:32.854Z,33.42
2019-01-19T12:55:03.306Z,38.15
2019-01-19T12:57:33.291Z,35.98
2019-01-19T13:00:05.151Z,35.35
2019-01-19T13:02:35.371Z,33.02
2019-01-19T13:05:12.276Z,38.15
2019-01-19T13:07:42.476Z,36.38
2019-01-19T13:10:21.822Z,36.05
2019-01-19T13:13:24.784Z,37.90
2019-01-19T13:17:09.700Z,34.63
2019-01-19T13:20:36.299Z,36.90
2019-01-19T13:24:22.458Z,39.65
2019-01-19T13:27:29.264Z,33.63
2019-01-19T13:31:17.137Z,39.95
2019-01-19T13:34:53.597Z,34.73
2019-01-19T13:38:16.084Z,32.78
2019-01-19T13:42:01.554Z,36.70
2019-01-19T13:45:53.389Z,37.63
2019-01-19T13:49:25.033Z,32.42
2019-01-19T13:52:25.727Z,39.58
2019-01-19T13:55:40.107Z,31.60
2019-01-19T13:58:55.912Z,35.55
2019-01-19T14:02:50.982Z,31.30
2019-01-19T14:06:44.929Z,31.87
2019-01-19T14:10:07.921Z,29.52
2019-01-19T14:13:45.927Z,54.40
2019-01-19T14:17:28.312Z,35.60
2019-01-19T14:21:01.143Z,32.08
2019-01-19T14:24:46.090Z,39.55
2019-01-19T14:28:19.441Z,36.48
2019-01-19T14:31:19.723Z,43.45
2019-01-19T14:34:37.503Z,35.68
2019-01-19T14:38:06.043Z,33.30
2019-01-19T14:41:09.715Z,33.25
2019-01-19T14:44:41.358Z,31.27
2019-01-19T14:48:04.146Z,39.38
2019-01-19T14:51:39.974Z,39.15
2019-01-19T14:54:52.159Z,41.88
2019-01-19T14:58:25.029Z,34.15
2019-01-19T15:01:28.370Z,26.05
2019-01-19T15:05:01.298Z,31.40
2019-01-19T15:07:54.760Z,31.62
2019-01-19T15:10:48.681Z,34.10
2019-01-19T15:14:32.896Z,27.05
2019-01-19T15:17:59.568Z,36.98
2019-01-19T15:21:31.001Z,33.10
2019-01-19T15:28:18.379Z,29.15
2019-01-19T15:31:35.631Z,30.15
2019-01-19T15:35:16.082Z,33.95
2019-01-19T15:38:58.983Z,34.23
2019-01-19T15:42:37.380Z,35.75
2019-01-19T15:46:48.457Z,34.48
2019-01-19T15:50:21.342Z,30.40
2019-01-19T15:53:41.237Z,26.20
2019-01-19T15:57:21.510Z,31.75
2019-01-19T16:00:37.284Z,47.62
2019-01-19T16:04:02.963Z,28.60
2019-01-19T16:07:09.451Z,32.08
2019-01-19T16:11:01.599Z,34.18
2019-01-19T16:14:37.808Z,37.08
2019-01-19T16:17:57.591Z,30.37
2019-01-19T16:21:24.623Z,34.03
2019-01-19T16:24:38.167Z,33.25
2019-01-19T16:27:53.417Z,31.37
2019-01-19T16:31:28.248Z,35.83
2019-01-19T16:35:03.038Z,32.45
2019-01-19T16:38:43.101Z,39.08
2019-01-19T16:42:12.861Z,32.93
2019-01-19T16:45:44.536Z,32.45
2019-01-19T16:49:02.220Z,32.93
2019-01-19T16:52:57.303Z,29.98
2019-01-19T16:56:10.998Z,33.45
2019-01-19T16:59:54.867Z,33.20
2019-01-19T17:02:54.828Z,37.48
2019-01-19T17:06:20.503Z,31.17
2019-01-19T17:09:25.211Z,34.08
2019-01-19T17:12:49.102Z,42.15
2019-01-19T17:16:27.778Z,34.03
2019-01-19T17:20:15.807Z,35.80
2019-01-19T17:23:25.807Z,36.28
2019-01-19T17:26:45.227Z,38.90
2019-01-19T17:30:16.760Z,41.80
2019-01-19T17:33:19.552Z,47.33
2019-01-19T17:37:07.291Z,48.55
2019-01-19T17:41:05.987Z,59.03
2019-01-19T17:44:36.869Z,38.55
2019-01-19T17:48:09.863Z,44.05
2019-01-19T17:51:48.606Z,43.38
2019-01-19T17:55:16.614Z,38.17
2019-01-19T18:05:46.198Z,39.73
2019-01-19T18:09:16.038Z,44.50
2019-01-19T18:24:40.385Z,48.65
2019-01-19T18:28:05.124Z,44.27
2019-01-19T18:31:59.190Z,52.25
2019-01-19T18:35:23.008Z,41.42
2019-01-19T18:38:40.258Z,46.98
2019-01-19T18:41:52.367Z,46.85
2019-01-19T18:45:14.849Z,50.85
2019-01-19T18:48:08.181Z,54.80
2019-01-19T18:51:47.143Z,52.08
2019-01-19T18:55:04.711Z,47.53
2019-01-19T18:58:28.170Z,52.38
2019-01-19T19:02:03.740Z,52.17
2019-01-19T19:04:56.559Z,44.38
2019-01-19T19:08:27.540Z,42.67
2019-01-19T19:11:43.192Z,45.52
2019-01-19T19:14:54.360Z,38.88
2019-01-19T19:18:06.910Z,53.50
2019-01-19T19:21:39.598Z,46.02
2019-01-19T19:25:09.582Z,44.77
2019-01-19T19:28:50.572Z,57.43
2019-01-19T19:32:18.438Z,50.63
2019-01-19T19:36:12.233Z,53.92
2019-01-19T19:39:14.671Z,51.25
2019-01-19T19:42:50.909Z,55.58
2019-01-19T19:46:43.370Z,39.40
2019-01-19T19:50:03.720Z,50.98
2019-01-19T19:52:35.111Z,48.48
2019-01-19T19:55:03.793Z,50.70
2019-01-19T19:57:34.482Z,51.50
2019-01-19T20:00:08.494Z,52.20
2019-01-19T20:02:43.109Z,51.15
2019-01-19T20:05:19.178Z,42.27
2019-01-19T20:07:53.814Z,54.05
2019-01-19T20:10:28.189Z,47.58
2019-01-19T20:13:09.029Z,56.35
2019-01-19T20:15:44.299Z,59.60
2019-01-19T20:18:23.717Z,55.98
2019-01-19T20:21:09.424Z,54.00
2019-01-19T20:23:53.363Z,46.90
2019-01-19T20:26:49.190Z,53.70
2019-01-19T20:29:19.416Z,55.55
2019-01-19T20:32:01.348Z,46.80
2019-01-19T20:34:37.579Z,43.05
2019-01-19T20:37:16.206Z,51.83
2019-01-19T20:40:03.448Z,54.60
2019-01-19T20:42:34.043Z,62.10
2019-01-19T20:45:06.520Z,53.48
2019-01-19T20:48:40.880Z,65.25
2019-01-19T20:51:52.687Z,54.05
2019-01-19T20:54:25.709Z,58.50
2019-01-19T20:56:55.844Z,61.15
2019-01-19T20:59:25.986Z,56.25
2019-01-19T21:01:55.839Z,56.53
2019-01-19T21:04:25.758Z,51.35
2019-01-19T21:06:55.911Z,54.10
2019-01-19T21:09:25.916Z,61.23
2019-01-19T21:11:56.027Z,58.02
2019-01-19T21:14:26.014Z,54.53
2019-01-19T21:16:55.994Z,55.12
2019-01-19T21:19:26.224Z,55.43
2019-01-19T21:21:56.323Z,55.95
2019-01-19T21:24:26.471Z,48.98
2019-01-19T21:26:56.725Z,67.00
2019-01-19T21:29:27.012Z,59.98
2019-01-19T21:31:57.359Z,56.35
2019-01-19T21:34:27.942Z,54.67
2019-01-19T21:36:58.268Z,50.15
2019-01-19T21:39:28.383Z,57.40
2019-01-19T21:41:58.742Z,59.60
2019-01-19T21:44:28.808Z,57.80
2019-01-19T21:46:58.804Z,54.80
2019-01-19T21:49:28.887Z,58.35
2019-01-19T21:51:58.985Z,55.52
2019-01-19T21:54:29.426Z,59.10
2019-01-19T21:57:02.042Z,65.30
2019-01-19T21:59:35.718Z,57.62
2019-01-19T22:02:07.843Z,57.30
2019-01-19T22:04:39.800Z,64.65
2019-01-19T22:07:11.753Z,60.58
2019-01-19T22:09:52.406Z,60.03
2019-01-19T22:12:32.098Z,63.80
2019-01-19T22:15:05.057Z,56.88
2019-01-19T22:17:39.780Z,63.65
2019-01-19T22:20:13.212Z,62.35
2019-01-19T22:22:43.510Z,58.78
2019-01-19T22:25:13.833Z,57.58
2019-01-19T22:27:48.135Z,62.93
2019-01-19T22:30:21.315Z,63.08
2019-01-19T22:32:53.866Z,60.63
2019-01-19T22:35:30.079Z,60.43
2019-01-19T22:38:00.257Z,55.48
2019-01-19T22:40:30.672Z,52.00
2019-01-19T22:43:05.344Z,58.45
2019-01-19T22:45:35.290Z,59.10
2019-01-19T22:48:05.235Z,54.75
2019-01-19T22:50:35.203Z,60.75
2019-01-19T22:53:05.142Z,56.98
2019-01-19T22:55:35.499Z,61.70
2019-01-19T22:58:05.915Z,68.95
2019-01-19T23:01:24.697Z,57.03
2019-01-19T23:03:56.392Z,50.08
2019-01-19T23:06:29.639Z,61.85
2019-01-19T23:09:00.322Z,54.90
2019-01-19T23:11:33.948Z,67.05
2019-01-19T23:14:03.998Z,57.00
2019-01-19T23:16:34.229Z,60.98
2019-01-19T23:19:04.545Z,53.42
2019-01-19T23:21:34.594Z,53.75
2019-01-19T23:24:04.885Z,57.38
2019-01-19T23:26:35.105Z,61.73
2019-01-19T23:29:05.492Z,41.95
2019-01-19T23:31:35.580Z,51.08
2019-01-19T23:34:05.643Z,63.78
2019-01-19T23:36:35.726Z,56.63
2019-01-19T23:39:09.308Z,56.73
2019-01-19T23:41:39.423Z,56.18
2019-01-19T23:44:09.293Z,67.78
2019-01-19T23:46:39.371Z,63.75
2019-01-19T23:49:09.506Z,62.08
2019-01-19T23:51:39.567Z,61.25
2019-01-19T23:54:09.714Z,63.83
2019-01-19T23:56:40.088Z,58.17
2019-01-19T23:59:09.975Z,53.50
